Terminal Aerodrome Forecast
Issued by NWS San Angelo, TX

Home | Current Version | Previous Version | Text Only | Print | Product List | Glossary On
Versions: 1 2 3 4 5 6 7 8 9 10 11 12 13 14 15
000
FTUS44 KSJT 202337
TAFABI
TAF
KABI 202337Z 2100/2124 14020G30KT P6SM OVC050
     FM210400 14016G26KT P6SM OVC025
     FM210700 14015G25KT 6SM -SHRA OVC025
     FM211400 16014G22KT P6SM VCSH OVC015
     FM211700 26017G27KT P6SM BKN035
     FM212000 31018G26KT P6SM SCT250=

USA.gov is the U.S. government's official web portal to all federal, state and local government web resources and services.